sensor_id;sensor_type;location;lat;lon;timestamp;P1;durP1;ratioP1;P2;durP2;ratioP2
79139;SDS011;68546;59.142;37.948;2024-01-25T00:01:45;223.68;;;67.50;;
79139;SDS011;68546;59.142;37.948;2024-01-25T00:04:11;219.57;;;67.45;;
79139;SDS011;68546;59.142;37.948;2024-01-25T00:06:37;204.83;;;64.50;;
79139;SDS011;68546;59.142;37.948;2024-01-25T00:09:04;207.65;;;64.95;;
79139;SDS011;68546;59.142;37.948;2024-01-25T00:11:30;206.32;;;65.10;;
79139;SDS011;68546;59.142;37.948;2024-01-25T00:13:57;207.20;;;65.15;;
79139;SDS011;68546;59.142;37.948;2024-01-25T00:16:24;211.93;;;65.78;;
79139;SDS011;68546;59.142;37.948;2024-01-25T00:18:50;207.63;;;65.63;;
79139;SDS011;68546;59.142;37.948;2024-01-25T00:21:17;206.15;;;65.15;;
79139;SDS011;68546;59.142;37.948;2024-01-25T00:23:43;208.53;;;65.50;;
79139;SDS011;68546;59.142;37.948;2024-01-25T00:26:09;208.60;;;65.32;;
79139;SDS011;68546;59.142;37.948;2024-01-25T00:28:36;208.18;;;65.70;;
79139;SDS011;68546;59.142;37.948;2024-01-25T00:31:02;209.60;;;65.37;;
79139;SDS011;68546;59.142;37.948;2024-01-25T00:33:29;203.70;;;64.40;;
79139;SDS011;68546;59.142;37.948;2024-01-25T00:35:55;206.25;;;65.63;;
79139;SDS011;68546;59.142;37.948;2024-01-25T00:38:22;206.57;;;65.05;;
79139;SDS011;68546;59.142;37.948;2024-01-25T00:40:48;209.00;;;65.47;;
79139;SDS011;68546;59.142;37.948;2024-01-25T00:43:15;205.73;;;65.57;;
79139;SDS011;68546;59.142;37.948;2024-01-25T00:45:42;204.57;;;64.95;;
79139;SDS011;68546;59.142;37.948;2024-01-25T00:48:09;207.73;;;65.50;;
79139;SDS011;68546;59.142;37.948;2024-01-25T00:50:37;206.52;;;64.97;;
79139;SDS011;68546;59.142;37.948;2024-01-25T00:53:04;206.88;;;64.82;;
79139;SDS011;68546;59.142;37.948;2024-01-25T00:55:30;210.07;;;65.47;;
79139;SDS011;68546;59.142;37.948;2024-01-25T00:57:57;208.48;;;64.88;;
79139;SDS011;68546;59.142;37.948;2024-01-25T01:00:26;207.80;;;65.28;;
79139;SDS011;68546;59.142;37.948;2024-01-25T01:02:52;209.93;;;65.55;;
79139;SDS011;68546;59.142;37.948;2024-01-25T01:05:20;212.45;;;65.90;;
79139;SDS011;68546;59.142;37.948;2024-01-25T01:07:47;214.95;;;67.22;;
79139;SDS011;68546;59.142;37.948;2024-01-25T01:10:13;210.35;;;66.05;;
79139;SDS011;68546;59.142;37.948;2024-01-25T01:12:40;215.20;;;66.30;;
79139;SDS011;68546;59.142;37.948;2024-01-25T01:15:06;210.95;;;65.88;;
79139;SDS011;68546;59.142;37.948;2024-01-25T01:17:33;213.27;;;66.43;;
79139;SDS011;68546;59.142;37.948;2024-01-25T01:20:00;213.47;;;66.33;;
79139;SDS011;68546;59.142;37.948;2024-01-25T01:22:27;212.57;;;66.22;;
79139;SDS011;68546;59.142;37.948;2024-01-25T01:24:53;212.07;;;66.30;;
79139;SDS011;68546;59.142;37.948;2024-01-25T01:27:20;203.95;;;64.40;;
79139;SDS011;68546;59.142;37.948;2024-01-25T01:29:47;206.45;;;64.88;;
79139;SDS011;68546;59.142;37.948;2024-01-25T01:32:14;203.52;;;64.57;;
79139;SDS011;68546;59.142;37.948;2024-01-25T01:34:40;204.25;;;64.70;;
79139;SDS011;68546;59.142;37.948;2024-01-25T01:37:06;202.13;;;64.57;;
79139;SDS011;68546;59.142;37.948;2024-01-25T01:39:33;200.77;;;63.70;;
79139;SDS011;68546;59.142;37.948;2024-01-25T01:42:00;200.43;;;63.90;;
79139;SDS011;68546;59.142;37.948;2024-01-25T01:44:26;200.23;;;63.90;;
79139;SDS011;68546;59.142;37.948;2024-01-25T01:46:53;206.35;;;65.05;;
79139;SDS011;68546;59.142;37.948;2024-01-25T01:49:20;204.07;;;64.20;;
79139;SDS011;68546;59.142;37.948;2024-01-25T01:51:47;202.50;;;63.97;;
79139;SDS011;68546;59.142;37.948;2024-01-25T01:54:13;205.17;;;64.77;;
79139;SDS011;68546;59.142;37.948;2024-01-25T01:56:40;204.50;;;64.28;;
79139;SDS011;68546;59.142;37.948;2024-01-25T01:59:10;202.13;;;64.68;;
79139;SDS011;68546;59.142;37.948;2024-01-25T02:01:37;202.55;;;64.22;;
79139;SDS011;68546;59.142;37.948;2024-01-25T02:04:04;203.70;;;64.40;;
79139;SDS011;68546;59.142;37.948;2024-01-25T02:06:31;203.80;;;64.68;;
79139;SDS011;68546;59.142;37.948;2024-01-25T02:08:58;204.95;;;65.05;;
79139;SDS011;68546;59.142;37.948;2024-01-25T02:11:24;206.30;;;64.87;;
79139;SDS011;68546;59.142;37.948;2024-01-25T02:13:52;203.02;;;64.22;;
79139;SDS011;68546;59.142;37.948;2024-01-25T02:16:18;201.05;;;64.70;;
79139;SDS011;68546;59.142;37.948;2024-01-25T02:18:46;204.60;;;64.53;;
79139;SDS011;68546;59.142;37.948;2024-01-25T02:21:13;206.75;;;64.93;;
79139;SDS011;68546;59.142;37.948;2024-01-25T02:23:40;206.07;;;65.65;;
79139;SDS011;68546;59.142;37.948;2024-01-25T02:26:06;205.02;;;64.68;;
79139;SDS011;68546;59.142;37.948;2024-01-25T02:28:33;203.40;;;64.23;;
79139;SDS011;68546;59.142;37.948;2024-01-25T02:31:01;203.43;;;64.78;;
79139;SDS011;68546;59.142;37.948;2024-01-25T02:33:28;200.30;;;64.03;;
79139;SDS011;68546;59.142;37.948;2024-01-25T02:35:54;203.63;;;64.67;;
79139;SDS011;68546;59.142;37.948;2024-01-25T02:38:21;203.40;;;64.75;;
79139;SDS011;68546;59.142;37.948;2024-01-25T02:40:47;203.95;;;65.00;;
79139;SDS011;68546;59.142;37.948;2024-01-25T02:43:14;206.77;;;65.00;;
79139;SDS011;68546;59.142;37.948;2024-01-25T02:45:40;207.25;;;64.93;;
79139;SDS011;68546;59.142;37.948;2024-01-25T02:48:07;204.70;;;65.30;;
79139;SDS011;68546;59.142;37.948;2024-01-25T02:50:33;206.88;;;65.10;;
79139;SDS011;68546;59.142;37.948;2024-01-25T02:53:00;205.60;;;64.87;;
79139;SDS011;68546;59.142;37.948;2024-01-25T02:55:26;205.27;;;65.00;;
79139;SDS011;68546;59.142;37.948;2024-01-25T02:57:53;206.68;;;64.97;;
79139;SDS011;68546;59.142;37.948;2024-01-25T03:00:20;211.03;;;65.93;;
79139;SDS011;68546;59.142;37.948;2024-01-25T03:02:47;208.85;;;65.72;;
79139;SDS011;68546;59.142;37.948;2024-01-25T03:05:13;214.95;;;67.07;;
79139;SDS011;68546;59.142;37.948;2024-01-25T03:07:40;212.50;;;66.40;;
79139;SDS011;68546;59.142;37.948;2024-01-25T03:10:06;218.43;;;67.25;;
79139;SDS011;68546;59.142;37.948;2024-01-25T03:12:33;215.77;;;67.93;;
79139;SDS011;68546;59.142;37.948;2024-01-25T03:15:00;215.50;;;67.03;;
79139;SDS011;68546;59.142;37.948;2024-01-25T03:17:26;219.57;;;68.13;;
79139;SDS011;68546;59.142;37.948;2024-01-25T03:19:53;217.80;;;67.70;;
79139;SDS011;68546;59.142;37.948;2024-01-25T03:22:20;218.18;;;67.72;;
79139;SDS011;68546;59.142;37.948;2024-01-25T03:24:48;222.23;;;68.10;;
79139;SDS011;68546;59.142;37.948;2024-01-25T03:27:14;216.88;;;67.63;;
79139;SDS011;68546;59.142;37.948;2024-01-25T03:29:41;219.23;;;68.53;;
79139;SDS011;68546;59.142;37.948;2024-01-25T03:32:12;221.98;;;69.93;;
79139;SDS011;68546;59.142;37.948;2024-01-25T03:34:38;224.23;;;69.68;;
79139;SDS011;68546;59.142;37.948;2024-01-25T03:37:05;222.52;;;70.00;;
79139;SDS011;68546;59.142;37.948;2024-01-25T03:39:31;220.13;;;68.45;;
79139;SDS011;68546;59.142;37.948;2024-01-25T03:41:58;217.93;;;67.77;;
79139;SDS011;68546;59.142;37.948;2024-01-25T03:44:24;218.90;;;67.65;;
79139;SDS011;68546;59.142;37.948;2024-01-25T03:46:51;219.85;;;67.85;;
79139;SDS011;68546;59.142;37.948;2024-01-25T03:49:17;219.00;;;67.80;;
79139;SDS011;68546;59.142;37.948;2024-01-25T03:51:45;218.23;;;67.50;;
79139;SDS011;68546;59.142;37.948;2024-01-25T03:54:11;219.38;;;68.38;;
79139;SDS011;68546;59.142;37.948;2024-01-25T03:56:38;218.63;;;68.10;;
79139;SDS011;68546;59.142;37.948;2024-01-25T03:59:05;219.65;;;68.18;;
79139;SDS011;68546;59.142;37.948;2024-01-25T04:01:43;222.50;;;68.85;;
79139;SDS011;68546;59.142;37.948;2024-01-25T04:04:10;223.25;;;69.07;;
79139;SDS011;68546;59.142;37.948;2024-01-25T04:06:40;226.40;;;71.37;;
79139;SDS011;68546;59.142;37.948;2024-01-25T04:09:17;222.50;;;69.05;;
79139;SDS011;68546;59.142;37.948;2024-01-25T04:11:43;220.07;;;69.82;;
79139;SDS011;68546;59.142;37.948;2024-01-25T04:14:10;224.77;;;69.07;;
79139;SDS011;68546;59.142;37.948;2024-01-25T04:16:37;220.48;;;69.20;;
79139;SDS011;68546;59.142;37.948;2024-01-25T04:19:03;219.55;;;68.75;;
79139;SDS011;68546;59.142;37.948;2024-01-25T04:21:30;221.93;;;68.10;;
79139;SDS011;68546;59.142;37.948;2024-01-25T04:23:56;225.88;;;69.55;;
79139;SDS011;68546;59.142;37.948;2024-01-25T04:26:22;224.40;;;69.03;;
79139;SDS011;68546;59.142;37.948;2024-01-25T04:28:49;225.68;;;69.00;;
79139;SDS011;68546;59.142;37.948;2024-01-25T04:31:16;227.80;;;69.70;;
79139;SDS011;68546;59.142;37.948;2024-01-25T04:33:42;225.55;;;69.50;;
79139;SDS011;68546;59.142;37.948;2024-01-25T04:36:09;227.40;;;69.78;;
79139;SDS011;68546;59.142;37.948;2024-01-25T04:38:36;229.90;;;70.27;;
79139;SDS011;68546;59.142;37.948;2024-01-25T04:41:03;226.10;;;68.75;;
79139;SDS011;68546;59.142;37.948;2024-01-25T04:43:33;227.55;;;70.18;;
79139;SDS011;68546;59.142;37.948;2024-01-25T04:46:02;230.23;;;70.15;;
79139;SDS011;68546;59.142;37.948;2024-01-25T04:48:29;230.88;;;69.70;;
79139;SDS011;68546;59.142;37.948;2024-01-25T04:50:56;230.40;;;70.95;;
79139;SDS011;68546;59.142;37.948;2024-01-25T04:53:24;229.85;;;70.22;;
79139;SDS011;68546;59.142;37.948;2024-01-25T04:55:51;230.13;;;70.57;;
79139;SDS011;68546;59.142;37.948;2024-01-25T04:58:19;229.30;;;69.95;;
79139;SDS011;68546;59.142;37.948;2024-01-25T05:00:46;229.93;;;69.80;;
79139;SDS011;68546;59.142;37.948;2024-01-25T05:03:12;231.57;;;70.37;;
79139;SDS011;68546;59.142;37.948;2024-01-25T05:05:38;225.68;;;69.20;;
79139;SDS011;68546;59.142;37.948;2024-01-25T05:08:05;222.32;;;69.15;;
79139;SDS011;68546;59.142;37.948;2024-01-25T05:10:32;221.48;;;68.57;;
79139;SDS011;68546;59.142;37.948;2024-01-25T05:12:58;230.57;;;69.82;;
79139;SDS011;68546;59.142;37.948;2024-01-25T05:15:24;223.02;;;69.55;;
79139;SDS011;68546;59.142;37.948;2024-01-25T05:17:51;221.95;;;69.13;;
79139;SDS011;68546;59.142;37.948;2024-01-25T05:20:17;222.67;;;69.17;;
79139;SDS011;68546;59.142;37.948;2024-01-25T05:22:43;222.90;;;69.45;;
79139;SDS011;68546;59.142;37.948;2024-01-25T05:25:11;224.05;;;69.10;;
79139;SDS011;68546;59.142;37.948;2024-01-25T05:27:38;226.57;;;69.50;;
79139;SDS011;68546;59.142;37.948;2024-01-25T05:30:04;228.98;;;69.47;;
79139;SDS011;68546;59.142;37.948;2024-01-25T05:32:31;228.43;;;70.70;;
79139;SDS011;68546;59.142;37.948;2024-01-25T05:34:58;229.85;;;70.30;;
79139;SDS011;68546;59.142;37.948;2024-01-25T05:37:24;234.73;;;70.70;;
79139;SDS011;68546;59.142;37.948;2024-01-25T05:39:51;231.80;;;70.78;;
79139;SDS011;68546;59.142;37.948;2024-01-25T05:42:17;235.85;;;72.57;;
79139;SDS011;68546;59.142;37.948;2024-01-25T05:44:44;236.43;;;72.47;;
79139;SDS011;68546;59.142;37.948;2024-01-25T05:47:10;234.13;;;71.95;;
79139;SDS011;68546;59.142;37.948;2024-01-25T05:49:36;230.95;;;71.00;;
79139;SDS011;68546;59.142;37.948;2024-01-25T05:52:03;238.93;;;71.88;;
79139;SDS011;68546;59.142;37.948;2024-01-25T05:54:30;234.80;;;71.07;;
79139;SDS011;68546;59.142;37.948;2024-01-25T05:56:56;232.32;;;71.10;;
79139;SDS011;68546;59.142;37.948;2024-01-25T05:59:22;233.80;;;71.28;;
79139;SDS011;68546;59.142;37.948;2024-01-25T06:01:48;238.83;;;72.47;;
79139;SDS011;68546;59.142;37.948;2024-01-25T06:04:15;240.70;;;72.25;;
79139;SDS011;68546;59.142;37.948;2024-01-25T06:06:41;242.73;;;74.07;;
79139;SDS011;68546;59.142;37.948;2024-01-25T06:09:07;240.38;;;72.95;;
79139;SDS011;68546;59.142;37.948;2024-01-25T06:11:34;239.83;;;72.53;;
79139;SDS011;68546;59.142;37.948;2024-01-25T06:14:01;239.38;;;72.30;;
79139;SDS011;68546;59.142;37.948;2024-01-25T06:16:28;241.05;;;72.72;;
79139;SDS011;68546;59.142;37.948;2024-01-25T06:18:54;239.57;;;72.70;;
79139;SDS011;68546;59.142;37.948;2024-01-25T06:21:20;239.00;;;72.47;;
79139;SDS011;68546;59.142;37.948;2024-01-25T06:23:47;240.18;;;73.00;;
79139;SDS011;68546;59.142;37.948;2024-01-25T06:26:13;240.07;;;72.28;;
79139;SDS011;68546;59.142;37.948;2024-01-25T06:28:39;245.38;;;73.90;;
79139;SDS011;68546;59.142;37.948;2024-01-25T06:31:06;239.68;;;73.28;;
79139;SDS011;68546;59.142;37.948;2024-01-25T06:33:33;235.82;;;71.72;;
79139;SDS011;68546;59.142;37.948;2024-01-25T06:36:00;240.93;;;72.17;;
79139;SDS011;68546;59.142;37.948;2024-01-25T06:38:26;238.38;;;72.20;;
79139;SDS011;68546;59.142;37.948;2024-01-25T06:40:52;239.35;;;72.55;;
79139;SDS011;68546;59.142;37.948;2024-01-25T06:43:19;239.93;;;72.20;;
79139;SDS011;68546;59.142;37.948;2024-01-25T06:45:45;236.95;;;71.90;;
79139;SDS011;68546;59.142;37.948;2024-01-25T06:48:12;236.95;;;72.40;;
79139;SDS011;68546;59.142;37.948;2024-01-25T06:50:38;234.50;;;71.47;;
79139;SDS011;68546;59.142;37.948;2024-01-25T06:53:04;235.80;;;71.38;;
79139;SDS011;68546;59.142;37.948;2024-01-25T06:55:31;233.13;;;72.05;;
79139;SDS011;68546;59.142;37.948;2024-01-25T06:57:57;234.77;;;71.50;;
79139;SDS011;68546;59.142;37.948;2024-01-25T07:00:23;231.77;;;71.13;;
79139;SDS011;68546;59.142;37.948;2024-01-25T07:02:50;231.32;;;71.00;;
79139;SDS011;68546;59.142;37.948;2024-01-25T07:05:16;228.43;;;70.47;;
79139;SDS011;68546;59.142;37.948;2024-01-25T07:07:42;230.37;;;70.57;;
79139;SDS011;68546;59.142;37.948;2024-01-25T07:10:09;228.98;;;70.28;;
79139;SDS011;68546;59.142;37.948;2024-01-25T07:12:35;231.23;;;71.63;;
79139;SDS011;68546;59.142;37.948;2024-01-25T07:15:02;232.57;;;71.13;;
79139;SDS011;68546;59.142;37.948;2024-01-25T07:17:28;234.77;;;71.80;;
79139;SDS011;68546;59.142;37.948;2024-01-25T07:19:55;230.70;;;71.63;;
79139;SDS011;68546;59.142;37.948;2024-01-25T07:22:21;230.50;;;70.85;;
79139;SDS011;68546;59.142;37.948;2024-01-25T07:24:48;235.10;;;71.37;;
79139;SDS011;68546;59.142;37.948;2024-01-25T07:27:15;230.85;;;71.85;;
79139;SDS011;68546;59.142;37.948;2024-01-25T07:29:43;227.73;;;70.68;;
79139;SDS011;68546;59.142;37.948;2024-01-25T07:32:11;229.33;;;70.67;;
79139;SDS011;68546;59.142;37.948;2024-01-25T07:34:38;229.70;;;71.25;;
79139;SDS011;68546;59.142;37.948;2024-01-25T07:37:04;229.82;;;71.32;;
79139;SDS011;68546;59.142;37.948;2024-01-25T07:39:31;228.30;;;70.75;;
79139;SDS011;68546;59.142;37.948;2024-01-25T07:41:57;234.77;;;72.70;;
79139;SDS011;68546;59.142;37.948;2024-01-25T07:44:23;230.23;;;71.63;;
79139;SDS011;68546;59.142;37.948;2024-01-25T07:46:50;228.15;;;71.35;;
79139;SDS011;68546;59.142;37.948;2024-01-25T07:49:16;232.75;;;72.00;;
79139;SDS011;68546;59.142;37.948;2024-01-25T07:51:43;231.10;;;71.22;;
79139;SDS011;68546;59.142;37.948;2024-01-25T07:54:09;234.63;;;72.68;;
79139;SDS011;68546;59.142;37.948;2024-01-25T07:56:35;233.68;;;72.00;;
79139;SDS011;68546;59.142;37.948;2024-01-25T07:59:02;234.17;;;72.20;;
79139;SDS011;68546;59.142;37.948;2024-01-25T08:01:28;234.88;;;72.47;;
79139;SDS011;68546;59.142;37.948;2024-01-25T08:03:55;238.10;;;72.97;;
79139;SDS011;68546;59.142;37.948;2024-01-25T08:06:21;237.37;;;72.97;;
79139;SDS011;68546;59.142;37.948;2024-01-25T08:08:48;222.15;;;70.20;;
79139;SDS011;68546;59.142;37.948;2024-01-25T08:11:14;226.02;;;71.13;;
79139;SDS011;68546;59.142;37.948;2024-01-25T08:13:44;245.60;;;73.93;;
79139;SDS011;68546;59.142;37.948;2024-01-25T08:16:10;258.77;;;77.22;;
79139;SDS011;68546;59.142;37.948;2024-01-25T08:18:37;249.95;;;75.75;;
79139;SDS011;68546;59.142;37.948;2024-01-25T08:21:03;250.43;;;75.82;;
79139;SDS011;68546;59.142;37.948;2024-01-25T08:23:30;256.60;;;76.90;;
79139;SDS011;68546;59.142;37.948;2024-01-25T08:25:56;259.98;;;77.50;;
79139;SDS011;68546;59.142;37.948;2024-01-25T08:28:23;264.60;;;78.65;;
79139;SDS011;68546;59.142;37.948;2024-01-25T08:30:49;274.55;;;79.97;;
79139;SDS011;68546;59.142;37.948;2024-01-25T08:33:16;235.37;;;71.97;;
79139;SDS011;68546;59.142;37.948;2024-01-25T08:35:42;243.35;;;74.18;;
79139;SDS011;68546;59.142;37.948;2024-01-25T08:38:08;262.55;;;77.45;;
79139;SDS011;68546;59.142;37.948;2024-01-25T08:40:35;275.25;;;79.80;;
79139;SDS011;68546;59.142;37.948;2024-01-25T08:43:01;280.85;;;80.75;;
79139;SDS011;68546;59.142;37.948;2024-01-25T08:45:28;275.80;;;80.05;;
79139;SDS011;68546;59.142;37.948;2024-01-25T08:47:54;271.35;;;79.07;;
79139;SDS011;68546;59.142;37.948;2024-01-25T08:50:21;274.37;;;80.67;;
79139;SDS011;68546;59.142;37.948;2024-01-25T08:52:48;272.73;;;79.32;;
79139;SDS011;68546;59.142;37.948;2024-01-25T08:55:15;276.20;;;80.95;;
79139;SDS011;68546;59.142;37.948;2024-01-25T08:57:41;276.52;;;80.85;;
79139;SDS011;68546;59.142;37.948;2024-01-25T09:00:08;282.92;;;80.75;;
79139;SDS011;68546;59.142;37.948;2024-01-25T09:02:36;283.35;;;81.18;;
79139;SDS011;68546;59.142;37.948;2024-01-25T09:05:06;279.05;;;80.75;;
79139;SDS011;68546;59.142;37.948;2024-01-25T09:07:34;278.13;;;79.90;;
79139;SDS011;68546;59.142;37.948;2024-01-25T09:10:00;283.80;;;82.03;;
79139;SDS011;68546;59.142;37.948;2024-01-25T09:12:27;286.35;;;82.07;;
79139;SDS011;68546;59.142;37.948;2024-01-25T09:14:54;289.00;;;82.03;;
79139;SDS011;68546;59.142;37.948;2024-01-25T09:17:20;290.63;;;82.22;;
79139;SDS011;68546;59.142;37.948;2024-01-25T09:19:49;290.15;;;82.10;;
79139;SDS011;68546;59.142;37.948;2024-01-25T09:22:17;304.52;;;84.43;;
79139;SDS011;68546;59.142;37.948;2024-01-25T09:24:45;299.77;;;83.33;;
79139;SDS011;68546;59.142;37.948;2024-01-25T09:27:12;313.13;;;86.45;;
79139;SDS011;68546;59.142;37.948;2024-01-25T09:29:39;319.20;;;87.68;;
79139;SDS011;68546;59.142;37.948;2024-01-25T09:32:06;317.70;;;86.53;;
79139;SDS011;68546;59.142;37.948;2024-01-25T09:34:34;306.60;;;84.37;;
79139;SDS011;68546;59.142;37.948;2024-01-25T09:37:02;296.95;;;83.10;;
79139;SDS011;68546;59.142;37.948;2024-01-25T09:39:28;300.23;;;84.45;;
79139;SDS011;68546;59.142;37.948;2024-01-25T09:41:55;303.75;;;85.38;;
79139;SDS011;68546;59.142;37.948;2024-01-25T09:44:21;307.65;;;84.70;;
79139;SDS011;68546;59.142;37.948;2024-01-25T09:46:48;312.25;;;86.45;;
79139;SDS011;68546;59.142;37.948;2024-01-25T09:49:15;305.92;;;84.82;;
79139;SDS011;68546;59.142;37.948;2024-01-25T09:51:42;306.43;;;84.40;;
79139;SDS011;68546;59.142;37.948;2024-01-25T09:54:09;307.00;;;85.18;;
79139;SDS011;68546;59.142;37.948;2024-01-25T09:56:36;296.30;;;82.35;;
79139;SDS011;68546;59.142;37.948;2024-01-25T09:59:07;285.50;;;81.05;;
79139;SDS011;68546;59.142;37.948;2024-01-25T10:01:34;289.10;;;81.97;;
79139;SDS011;68546;59.142;37.948;2024-01-25T10:04:01;281.98;;;80.78;;
79139;SDS011;68546;59.142;37.948;2024-01-25T10:06:32;281.30;;;80.93;;
79139;SDS011;68546;59.142;37.948;2024-01-25T10:08:59;271.10;;;78.83;;
79139;SDS011;68546;59.142;37.948;2024-01-25T10:11:25;269.65;;;78.03;;
79139;SDS011;68546;59.142;37.948;2024-01-25T10:13:54;270.05;;;78.20;;
79139;SDS011;68546;59.142;37.948;2024-01-25T10:16:22;270.08;;;77.88;;
79139;SDS011;68546;59.142;37.948;2024-01-25T10:18:50;271.03;;;78.70;;
79139;SDS011;68546;59.142;37.948;2024-01-25T10:21:18;271.33;;;78.07;;
79139;SDS011;68546;59.142;37.948;2024-01-25T10:23:47;270.70;;;78.22;;
79139;SDS011;68546;59.142;37.948;2024-01-25T10:26:14;265.92;;;76.82;;
79139;SDS011;68546;59.142;37.948;2024-01-25T10:28:42;276.10;;;80.00;;
79139;SDS011;68546;59.142;37.948;2024-01-25T10:31:09;275.85;;;79.60;;
79139;SDS011;68546;59.142;37.948;2024-01-25T10:33:35;271.35;;;78.78;;
79139;SDS011;68546;59.142;37.948;2024-01-25T10:36:04;268.50;;;78.72;;
79139;SDS011;68546;59.142;37.948;2024-01-25T10:38:34;269.47;;;77.63;;
79139;SDS011;68546;59.142;37.948;2024-01-25T10:41:02;266.83;;;77.50;;
79139;SDS011;68546;59.142;37.948;2024-01-25T10:43:29;263.70;;;77.07;;
79139;SDS011;68546;59.142;37.948;2024-01-25T10:45:56;263.38;;;77.05;;
79139;SDS011;68546;59.142;37.948;2024-01-25T10:48:24;262.13;;;77.03;;
79139;SDS011;68546;59.142;37.948;2024-01-25T10:50:55;259.58;;;76.00;;
79139;SDS011;68546;59.142;37.948;2024-01-25T10:53:23;260.42;;;76.35;;
79139;SDS011;68546;59.142;37.948;2024-01-25T10:55:51;255.63;;;75.05;;
79139;SDS011;68546;59.142;37.948;2024-01-25T10:58:18;260.47;;;76.03;;
79139;SDS011;68546;59.142;37.948;2024-01-25T11:00:51;261.95;;;76.15;;
79139;SDS011;68546;59.142;37.948;2024-01-25T11:03:28;262.50;;;76.47;;
79139;SDS011;68546;59.142;37.948;2024-01-25T11:06:09;262.63;;;76.57;;
79139;SDS011;68546;59.142;37.948;2024-01-25T11:08:37;269.30;;;77.77;;
79139;SDS011;68546;59.142;37.948;2024-01-25T11:11:12;268.63;;;77.50;;
79139;SDS011;68546;59.142;37.948;2024-01-25T11:13:43;270.45;;;77.97;;
79139;SDS011;68546;59.142;37.948;2024-01-25T11:16:27;272.60;;;78.22;;
79139;SDS011;68546;59.142;37.948;2024-01-25T11:18:56;276.33;;;78.83;;
79139;SDS011;68546;59.142;37.948;2024-01-25T11:24:14;256.30;;;75.18;;
79139;SDS011;68546;59.142;37.948;2024-01-25T11:26:42;252.68;;;74.38;;
79139;SDS011;68546;59.142;37.948;2024-01-25T11:29:17;250.63;;;74.10;;
79139;SDS011;68546;59.142;37.948;2024-01-25T11:31:46;251.23;;;73.97;;
79139;SDS011;68546;59.142;37.948;2024-01-25T11:34:14;214.95;;;67.50;;
79139;SDS011;68546;59.142;37.948;2024-01-25T11:36:42;213.20;;;66.38;;
79139;SDS011;68546;59.142;37.948;2024-01-25T11:39:10;214.23;;;67.30;;
79139;SDS011;68546;59.142;37.948;2024-01-25T11:41:37;217.68;;;68.10;;
79139;SDS011;68546;59.142;37.948;2024-01-25T11:44:04;219.40;;;69.25;;
79139;SDS011;68546;59.142;37.948;2024-01-25T11:46:31;219.00;;;68.38;;
79139;SDS011;68546;59.142;37.948;2024-01-25T11:48:58;224.30;;;69.50;;
79139;SDS011;68546;59.142;37.948;2024-01-25T11:51:24;222.98;;;69.40;;
79139;SDS011;68546;59.142;37.948;2024-01-25T11:53:51;227.10;;;70.22;;
79139;SDS011;68546;59.142;37.948;2024-01-25T11:56:19;232.07;;;70.72;;
79139;SDS011;68546;59.142;37.948;2024-01-25T11:58:49;241.30;;;72.40;;
79139;SDS011;68546;59.142;37.948;2024-01-25T12:01:17;241.73;;;73.15;;
79139;SDS011;68546;59.142;37.948;2024-01-25T12:03:45;242.38;;;72.63;;
79139;SDS011;68546;59.142;37.948;2024-01-25T12:06:11;236.17;;;71.10;;
79139;SDS011;68546;59.142;37.948;2024-01-25T12:08:38;230.93;;;70.22;;
79139;SDS011;68546;59.142;37.948;2024-01-25T12:11:05;228.82;;;70.07;;
79139;SDS011;68546;59.142;37.948;2024-01-25T12:13:40;225.50;;;69.35;;
79139;SDS011;68546;59.142;37.948;2024-01-25T12:16:08;234.43;;;70.90;;
79139;SDS011;68546;59.142;37.948;2024-01-25T12:18:36;234.73;;;71.20;;
79139;SDS011;68546;59.142;37.948;2024-01-25T12:21:04;228.45;;;70.22;;
79139;SDS011;68546;59.142;37.948;2024-01-25T12:23:35;224.27;;;69.50;;
79139;SDS011;68546;59.142;37.948;2024-01-25T12:26:04;232.50;;;69.97;;
79139;SDS011;68546;59.142;37.948;2024-01-25T12:28:32;233.38;;;70.60;;
79139;SDS011;68546;59.142;37.948;2024-01-25T12:31:03;230.63;;;70.82;;
79139;SDS011;68546;59.142;37.948;2024-01-25T12:33:31;230.80;;;70.47;;
79139;SDS011;68546;59.142;37.948;2024-01-25T12:35:58;229.57;;;70.13;;
79139;SDS011;68546;59.142;37.948;2024-01-25T12:38:25;231.93;;;70.47;;
79139;SDS011;68546;59.142;37.948;2024-01-25T12:40:53;234.30;;;71.38;;
79139;SDS011;68546;59.142;37.948;2024-01-25T12:43:20;233.38;;;71.07;;
79139;SDS011;68546;59.142;37.948;2024-01-25T12:45:49;239.10;;;72.43;;
79139;SDS011;68546;59.142;37.948;2024-01-25T12:48:16;246.57;;;73.45;;
79139;SDS011;68546;59.142;37.948;2024-01-25T12:50:43;244.00;;;73.07;;
79139;SDS011;68546;59.142;37.948;2024-01-25T12:53:10;241.90;;;72.68;;
79139;SDS011;68546;59.142;37.948;2024-01-25T12:55:37;247.53;;;73.13;;
79139;SDS011;68546;59.142;37.948;2024-01-25T12:58:04;250.85;;;74.13;;
79139;SDS011;68546;59.142;37.948;2024-01-25T13:00:31;246.75;;;73.95;;
79139;SDS011;68546;59.142;37.948;2024-01-25T13:02:58;268.40;;;77.68;;
79139;SDS011;68546;59.142;37.948;2024-01-25T13:05:27;269.40;;;78.17;;
79139;SDS011;68546;59.142;37.948;2024-01-25T13:07:54;275.70;;;79.75;;
79139;SDS011;68546;59.142;37.948;2024-01-25T13:10:21;268.85;;;78.57;;
79139;SDS011;68546;59.142;37.948;2024-01-25T13:12:48;262.88;;;76.93;;
79139;SDS011;68546;59.142;37.948;2024-01-25T13:15:15;264.67;;;76.68;;
79139;SDS011;68546;59.142;37.948;2024-01-25T13:17:41;262.73;;;77.18;;
79139;SDS011;68546;59.142;37.948;2024-01-25T13:20:08;257.95;;;75.18;;
79139;SDS011;68546;59.142;37.948;2024-01-25T13:22:35;258.17;;;75.53;;
79139;SDS011;68546;59.142;37.948;2024-01-25T13:25:02;251.82;;;74.72;;
79139;SDS011;68546;59.142;37.948;2024-01-25T13:27:30;255.45;;;75.93;;
79139;SDS011;68546;59.142;37.948;2024-01-25T13:29:57;262.92;;;77.45;;
79139;SDS011;68546;59.142;37.948;2024-01-25T13:32:24;276.33;;;79.18;;
79139;SDS011;68546;59.142;37.948;2024-01-25T13:34:50;277.17;;;79.97;;
79139;SDS011;68546;59.142;37.948;2024-01-25T13:37:17;270.58;;;78.25;;
79139;SDS011;68546;59.142;37.948;2024-01-25T13:39:43;264.57;;;77.00;;
79139;SDS011;68546;59.142;37.948;2024-01-25T13:42:10;263.35;;;77.13;;
79139;SDS011;68546;59.142;37.948;2024-01-25T13:44:37;265.35;;;77.45;;
79139;SDS011;68546;59.142;37.948;2024-01-25T13:47:04;274.80;;;78.57;;
79139;SDS011;68546;59.142;37.948;2024-01-25T13:49:31;288.02;;;81.32;;
79139;SDS011;68546;59.142;37.948;2024-01-25T13:51:59;279.88;;;80.57;;
79139;SDS011;68546;59.142;37.948;2024-01-25T13:54:27;276.20;;;79.43;;
79139;SDS011;68546;59.142;37.948;2024-01-25T13:56:53;273.80;;;78.87;;
79139;SDS011;68546;59.142;37.948;2024-01-25T13:59:21;272.05;;;78.38;;